Time;durP1;ratioP1;P1;durP2;ratioP2;P2;SDS_P1;SDS_P2;PMS_P1;PMS_P2;Temp;Humidity;BMP_temperature;BMP_pressure;BME280_temperature;BME280_humidity;BME280_pressure;Samples;Min_cycle;Max_cycle;Signal;HPM_P1;HPM_P2
2023/07/30 00:01:59;;;;;;;1.00;0.82;;;16.10;99.90;16.10;99929.00;;;;4993532;27;110794;-61
2023/07/30 00:04:24;;;;;;;1.02;0.88;;;16.10;99.90;16.10;99937.00;;;;4992826;27;87931;-60
2023/07/30 00:06:50;;;;;;;1.15;1.05;;;16.10;99.90;16.10;99935.00;;;;4992143;27;117114;-62
2023/07/30 00:09:16;;;;;;;1.00;1.00;;;16.10;99.90;16.10;99925.00;;;;4988130;27;116074;-61
2023/07/30 00:11:42;;;;;;;0.80;0.70;;;16.00;99.90;16.10;99926.00;;;;4989871;27;88203;-61
2023/07/30 00:14:07;;;;;;;1.25;1.15;;;16.00;99.90;16.10;99924.00;;;;4989098;27;108683;-60
2023/07/30 00:16:33;;;;;;;1.95;1.38;;;16.10;99.90;16.10;99927.00;;;;4994205;28;116848;-60
2023/07/30 00:18:59;;;;;;;0.82;0.60;;;16.10;99.90;16.10;99920.00;;;;4995063;28;90190;-62
2023/07/30 00:21:24;;;;;;;1.15;1.05;;;16.00;99.90;16.10;99924.00;;;;4993922;28;110470;-60
2023/07/30 00:23:50;;;;;;;1.17;1.00;;;16.00;99.90;16.00;99926.00;;;;4990380;27;108709;-60
2023/07/30 00:26:16;;;;;;;1.13;0.68;;;16.00;99.90;16.00;99921.00;;;;4990735;28;118604;-62
2023/07/30 00:28:41;;;;;;;0.98;0.90;;;16.00;99.90;16.00;99930.00;;;;4987897;28;116474;-61
2023/07/30 00:31:07;;;;;;;1.08;1.05;;;15.90;99.90;16.00;99917.00;;;;4995913;27;109947;-61
2023/07/30 00:33:33;;;;;;;1.75;1.33;;;15.90;99.90;15.90;99932.00;;;;4991453;27;107541;-61
2023/07/30 00:35:58;;;;;;;1.00;0.80;;;15.90;99.90;15.90;99923.00;;;;4989290;27;116657;-61
2023/07/30 00:38:24;;;;;;;1.02;0.68;;;15.80;99.90;15.90;99925.00;;;;4990042;27;87919;-62
2023/07/30 00:40:50;;;;;;;1.27;1.23;;;15.80;99.90;15.80;99917.00;;;;4995968;27;87310;-60
2023/07/30 00:43:16;;;;;;;1.92;0.88;;;15.80;99.90;15.80;99921.00;;;;4989826;27;109090;-61
2023/07/30 00:45:44;;;;;;;1.23;1.10;;;15.70;99.90;15.80;99918.00;;;;4989019;27;116946;-61
2023/07/30 00:48:11;;;;;;;0.88;0.88;;;15.70;99.90;15.70;99913.00;;;;4994774;27;88855;-61
2023/07/30 00:50:38;;;;;;;1.80;1.25;;;15.70;99.90;15.70;99918.00;;;;4987340;27;87912;-61
2023/07/30 00:53:04;;;;;;;0.73;0.73;;;15.70;99.90;15.60;99905.00;;;;4989291;27;87905;-62
2023/07/30 00:55:30;;;;;;;1.55;1.45;;;15.60;99.90;15.60;99900.00;;;;4995955;27;118544;-60
2023/07/30 00:57:57;;;;;;;1.17;0.63;;;15.60;99.90;15.60;99906.00;;;;4992554;27;115663;-61
2023/07/30 01:00:24;;;;;;;1.08;0.98;;;15.50;99.90;15.50;99896.00;;;;4992019;27;88045;-61
2023/07/30 01:02:51;;;;;;;3.08;1.17;;;15.50;99.90;15.50;99895.00;;;;4992154;27;87834;-60
2023/07/30 01:05:17;;;;;;;1.55;1.13;;;15.40;99.90;15.40;99900.00;;;;4987731;27;108191;-59
2023/07/30 01:07:42;;;;;;;1.75;0.80;;;15.40;99.90;15.40;99896.00;;;;4990751;27;106921;-60
2023/07/30 01:10:08;;;;;;;1.05;0.88;;;15.40;99.90;15.40;99911.00;;;;4990877;27;110239;-60
2023/07/30 01:12:35;;;;;;;1.27;1.17;;;15.40;99.90;15.40;99907.00;;;;4993505;27;106135;-60
2023/07/30 01:15:01;;;;;;;1.63;1.50;;;15.40;99.90;15.40;99899.00;;;;4994152;27;87950;-60
2023/07/30 01:17:27;;;;;;;3.88;1.15;;;15.50;99.90;15.40;99901.00;;;;4993412;27;108225;-61
2023/07/30 01:19:54;;;;;;;1.40;0.88;;;15.30;99.90;15.30;99903.00;;;;4993675;27;109979;-60
2023/07/30 01:22:21;;;;;;;0.95;0.95;;;15.30;99.90;15.30;99894.00;;;;4993547;27;87568;-61
2023/07/30 01:24:48;;;;;;;2.03;1.25;;;15.30;99.90;15.30;99911.00;;;;4992233;27;108842;-61
2023/07/30 01:27:22;;;;;;;1.50;1.33;;;15.30;99.90;15.20;99917.00;;;;4990919;27;88414;-61
2023/07/30 01:29:56;;;;;;;1.20;1.17;;;15.20;99.90;15.20;99912.00;;;;4992891;27;87327;-61
2023/07/30 01:32:26;;;;;;;1.13;1.02;;;15.20;99.90;15.20;99911.00;;;;4994238;27;88095;-59
2023/07/30 01:34:57;;;;;;;1.10;0.98;;;15.20;99.90;15.20;99908.00;;;;4976069;27;88042;-62
2023/07/30 01:37:23;;;;;;;2.33;1.55;;;15.20;99.90;15.20;99913.00;;;;4988683;27;90293;-60
2023/07/30 01:39:50;;;;;;;2.60;1.55;;;15.10;99.90;15.10;99906.00;;;;4994562;27;102371;-63
2023/07/30 01:42:16;;;;;;;1.70;1.23;;;15.10;99.90;15.10;99918.00;;;;4992116;27;87870;-62
2023/07/30 01:44:41;;;;;;;1.48;1.35;;;15.10;99.90;15.10;99923.00;;;;4991212;27;87670;-62
2023/07/30 01:47:07;;;;;;;1.77;1.33;;;15.10;99.90;15.10;99921.00;;;;4988503;27;110895;-62
2023/07/30 01:49:33;;;;;;;1.27;1.15;;;15.10;99.90;15.00;99933.00;;;;4988197;27;110922;-63
2023/07/30 01:51:59;;;;;;;0.90;0.90;;;15.00;99.90;15.10;99938.00;;;;4988563;28;87838;-62
2023/07/30 01:54:25;;;;;;;1.08;1.08;;;15.20;99.90;15.00;99934.00;;;;4986925;27;117643;-61
2023/07/30 01:56:52;;;;;;;1.40;1.25;;;15.00;99.90;15.10;99942.00;;;;4992759;27;87881;-61
2023/07/30 01:59:18;;;;;;;2.25;1.30;;;15.00;99.90;15.10;99939.00;;;;4986842;27;104102;-62
2023/07/30 02:01:44;;;;;;;2.78;1.20;;;15.00;99.90;15.10;99945.00;;;;4992371;27;89001;-61
2023/07/30 02:04:10;;;;;;;1.40;0.70;;;15.00;99.90;15.10;99951.00;;;;4992069;27;116336;-62
2023/07/30 02:06:35;;;;;;;1.63;1.35;;;15.00;99.90;15.10;99951.00;;;;4989914;27;109013;-61
2023/07/30 02:09:01;;;;;;;1.33;1.23;;;14.80;99.90;15.10;99950.00;;;;4991904;27;110840;-61
2023/07/30 02:11:28;;;;;;;3.10;1.30;;;15.00;99.90;15.00;99949.00;;;;4993080;27;98173;-61
2023/07/30 02:13:53;;;;;;;2.25;1.10;;;15.00;99.90;15.00;99947.00;;;;4993341;27;89004;-61
2023/07/30 02:16:19;;;;;;;2.72;1.45;;;15.00;99.90;15.00;99956.00;;;;4986498;27;106858;-61
2023/07/30 02:18:45;;;;;;;1.85;1.52;;;15.00;99.90;15.00;99959.00;;;;4989063;27;87358;-62
2023/07/30 02:21:11;;;;;;;3.05;1.50;;;15.00;99.90;15.00;99954.00;;;;4990507;27;87661;-62
2023/07/30 02:23:36;;;;;;;1.15;1.05;;;15.00;99.90;15.00;99954.00;;;;4988355;27;116486;-59
2023/07/30 02:26:02;;;;;;;0.93;0.90;;;15.00;99.90;15.00;99946.00;;;;4992313;27;106603;-60
2023/07/30 02:28:28;;;;;;;1.23;1.13;;;15.00;99.90;15.00;99957.00;;;;4993240;27;107150;-61
2023/07/30 02:30:53;;;;;;;2.63;1.10;;;15.00;99.90;15.00;99952.00;;;;4990439;27;108464;-60
2023/07/30 02:33:19;;;;;;;1.10;0.90;;;15.00;99.90;15.00;99959.00;;;;4986419;27;92916;-61
2023/07/30 02:35:45;;;;;;;1.40;1.30;;;14.90;99.90;15.00;99942.00;;;;4991904;27;98146;-62
2023/07/30 02:38:10;;;;;;;1.35;1.25;;;14.90;99.90;14.90;99952.00;;;;4996575;27;92220;-61
2023/07/30 02:40:36;;;;;;;1.00;0.93;;;14.90;99.90;15.00;99947.00;;;;4990416;27;109241;-60
2023/07/30 02:43:02;;;;;;;1.02;1.00;;;14.90;99.90;14.90;99953.00;;;;4991007;27;116901;-61
2023/07/30 02:45:27;;;;;;;1.50;1.38;;;14.90;99.90;14.90;99949.00;;;;4986278;27;93500;-61
2023/07/30 02:47:53;;;;;;;1.63;1.48;;;14.90;99.90;14.90;99951.00;;;;4987070;27;108782;-61
2023/07/30 02:50:19;;;;;;;2.63;1.60;;;14.90;99.90;14.90;99956.00;;;;4991494;27;108644;-61
2023/07/30 02:52:44;;;;;;;1.60;1.15;;;14.90;99.90;14.90;99954.00;;;;4992705;27;119206;-62
2023/07/30 02:55:10;;;;;;;0.73;0.73;;;14.90;99.90;14.90;99954.00;;;;4990046;27;119065;-60
2023/07/30 02:57:36;;;;;;;1.05;1.05;;;14.90;99.90;14.90;99958.00;;;;4993213;27;88416;-61
2023/07/30 03:00:03;;;;;;;1.23;1.05;;;14.80;99.90;14.90;99953.00;;;;4993812;27;105421;-62
2023/07/30 03:02:29;;;;;;;2.00;1.30;;;14.80;99.90;14.90;99951.00;;;;4991337;27;88947;-59
2023/07/30 03:04:55;;;;;;;1.15;1.05;;;14.80;99.90;14.80;99957.00;;;;4990240;27;88227;-61
2023/07/30 03:07:20;;;;;;;1.48;0.95;;;14.80;99.90;14.80;99959.00;;;;4995481;27;99680;-62
2023/07/30 03:09:46;;;;;;;1.40;1.08;;;14.80;99.90;14.80;99953.00;;;;4994344;27;90501;-62
2023/07/30 03:12:12;;;;;;;3.58;1.45;;;14.80;99.90;14.80;99964.00;;;;4986439;27;88736;-61
2023/07/30 03:14:38;;;;;;;3.58;1.63;;;14.80;99.90;14.80;99959.00;;;;4990195;27;96819;-61
2023/07/30 03:17:04;;;;;;;0.90;0.85;;;14.80;99.90;14.80;99960.00;;;;4995365;27;110662;-62
2023/07/30 03:19:30;;;;;;;1.27;1.17;;;14.80;99.90;14.80;99962.00;;;;4992988;27;87707;-61
2023/07/30 03:21:56;;;;;;;2.13;1.20;;;14.80;99.90;14.80;99953.00;;;;4986936;27;104287;-61
2023/07/30 03:24:22;;;;;;;1.85;1.20;;;14.80;99.90;14.80;99960.00;;;;4988918;27;117677;-61
2023/07/30 03:26:47;;;;;;;2.38;1.20;;;14.80;99.90;14.80;99959.00;;;;4991593;27;110535;-61
2023/07/30 03:29:14;;;;;;;1.50;1.40;;;14.80;99.90;14.80;99959.00;;;;4986088;27;108735;-61
2023/07/30 03:31:40;;;;;;;1.10;0.93;;;14.80;99.90;14.80;99963.00;;;;4990603;27;97167;-62
2023/07/30 03:34:05;;;;;;;1.20;1.10;;;14.80;99.90;14.90;99962.00;;;;4991937;27;99189;-61
2023/07/30 03:36:31;;;;;;;3.33;1.27;;;14.80;99.90;14.90;99963.00;;;;4990035;27;110003;-61
2023/07/30 03:38:57;;;;;;;1.70;1.60;;;14.80;99.90;14.90;99959.00;;;;4995100;27;108595;-60
2023/07/30 03:41:23;;;;;;;1.38;1.08;;;14.90;99.90;15.00;99962.00;;;;4993197;27;88781;-60
2023/07/30 03:43:48;;;;;;;2.25;1.55;;;14.90;99.90;15.00;99960.00;;;;4990503;27;102364;-61
2023/07/30 03:46:14;;;;;;;1.35;1.25;;;14.90;99.90;15.00;99966.00;;;;4988478;27;110527;-60
2023/07/30 03:48:40;;;;;;;2.67;1.48;;;15.00;99.90;15.10;99968.00;;;;4990235;27;107153;-61
2023/07/30 03:51:07;;;;;;;1.02;0.98;;;15.00;99.90;15.10;99966.00;;;;4991968;27;117605;-60
2023/07/30 03:53:32;;;;;;;1.65;1.25;;;15.00;99.90;15.20;99966.00;;;;4990488;27;88860;-62
2023/07/30 03:55:58;;;;;;;1.55;1.33;;;15.10;99.90;15.20;99962.00;;;;4989889;27;99705;-61
2023/07/30 03:58:24;;;;;;;1.80;1.35;;;15.10;99.90;15.30;99965.00;;;;4992674;27;108275;-61
2023/07/30 04:00:49;;;;;;;4.72;1.38;;;15.20;99.90;15.30;99960.00;;;;4993745;27;117229;-61
2023/07/30 04:03:15;;;;;;;2.13;1.20;;;15.20;99.90;15.40;99968.00;;;;4988551;27;117693;-61
2023/07/30 04:05:41;;;;;;;2.47;1.38;;;15.30;99.90;15.40;99968.00;;;;4990776;27;112280;-62
2023/07/30 04:08:07;;;;;;;1.35;1.25;;;15.40;99.90;15.50;99960.00;;;;4989251;27;108415;-62
2023/07/30 04:10:32;;;;;;;2.78;1.50;;;15.40;99.90;15.60;99965.00;;;;4989520;27;117738;-62
2023/07/30 04:12:58;;;;;;;1.80;1.17;;;15.50;99.90;15.70;99970.00;;;;4987288;27;118562;-61
2023/07/30 04:15:23;;;;;;;1.27;1.17;;;15.60;99.90;15.70;99957.00;;;;4987974;27;111014;-62
2023/07/30 04:17:49;;;;;;;1.17;1.08;;;15.60;99.90;15.80;99961.00;;;;4990993;27;106523;-62
2023/07/30 04:20:15;;;;;;;1.50;1.23;;;15.70;99.90;15.80;99959.00;;;;4990257;27;87762;-63
2023/07/30 04:22:41;;;;;;;0.82;0.82;;;15.80;99.90;15.90;99962.00;;;;4992183;27;115556;-62
2023/07/30 04:25:08;;;;;;;1.42;1.33;;;15.80;99.90;15.90;99970.00;;;;4989930;27;87996;-61
2023/07/30 04:27:33;;;;;;;1.17;0.98;;;15.80;99.90;15.90;99968.00;;;;4988934;27;98226;-61
2023/07/30 04:29:59;;;;;;;1.38;1.27;;;15.90;99.90;16.00;99970.00;;;;4992075;27;89065;-61
2023/07/30 04:32:25;;;;;;;1.30;1.20;;;15.90;99.90;16.00;99962.00;;;;4988634;27;117301;-61
2023/07/30 04:34:50;;;;;;;1.75;1.27;;;16.00;99.90;16.00;99963.00;;;;4989336;27;109520;-61
2023/07/30 04:37:16;;;;;;;1.17;0.90;;;16.00;99.90;16.10;99953.00;;;;4990400;27;108308;-60
2023/07/30 04:39:42;;;;;;;1.50;1.05;;;16.00;99.90;16.10;99964.00;;;;4991233;27;117124;-62
2023/07/30 04:42:07;;;;;;;4.82;1.35;;;16.00;99.90;16.10;99960.00;;;;4988468;27;117510;-62
2023/07/30 04:44:33;;;;;;;2.97;1.38;;;16.00;99.90;16.20;99964.00;;;;4989341;27;87185;-61
2023/07/30 04:46:59;;;;;;;3.97;1.20;;;16.10;99.90;16.20;99954.00;;;;4991685;27;107528;-60
2023/07/30 04:49:24;;;;;;;1.67;1.48;;;16.20;99.90;16.30;99963.00;;;;4987942;27;117680;-60
2023/07/30 04:51:50;;;;;;;1.50;1.40;;;16.20;99.90;16.30;99972.00;;;;4994609;27;118156;-61
2023/07/30 04:54:15;;;;;;;1.10;1.00;;;16.20;99.90;16.40;99961.00;;;;4996329;27;109829;-61
2023/07/30 04:56:41;;;;;;;1.73;1.25;;;16.30;99.90;16.40;99957.00;;;;4995908;27;109548;-61
2023/07/30 04:59:07;;;;;;;1.80;1.30;;;16.30;99.90;16.50;99962.00;;;;4998027;27;117577;-61
2023/07/30 05:01:33;;;;;;;1.05;0.85;;;16.40;99.90;16.60;99957.00;;;;4985497;27;116337;-61
2023/07/30 05:04:07;;;;;;;1.10;0.95;;;16.50;99.90;16.70;99949.00;;;;4996180;27;109310;-60
2023/07/30 05:06:33;;;;;;;1.63;1.48;;;16.60;99.90;16.80;99953.00;;;;4993249;27;102075;-61
2023/07/30 05:08:59;;;;;;;2.28;1.33;;;16.60;99.90;16.90;99963.00;;;;4994575;27;87328;-60
2023/07/30 05:11:24;;;;;;;2.40;1.25;;;16.70;99.90;17.00;99961.00;;;;4991964;27;87962;-59
2023/07/30 05:13:50;;;;;;;1.73;1.50;;;16.80;99.90;17.10;99965.00;;;;4990528;27;108851;-61
2023/07/30 05:16:16;;;;;;;4.00;1.35;;;16.90;99.90;17.10;99962.00;;;;4988943;27;103311;-60
2023/07/30 05:18:41;;;;;;;1.63;1.52;;;17.00;99.90;17.20;99965.00;;;;4989087;27;115036;-60
2023/07/30 05:21:07;;;;;;;3.60;1.20;;;17.10;99.90;17.30;99962.00;;;;4978623;27;117388;-59
2023/07/30 05:23:33;;;;;;;2.40;1.08;;;17.20;99.90;17.40;99966.00;;;;4989482;27;110338;-59
2023/07/30 05:25:58;;;;;;;1.48;1.10;;;17.20;99.90;17.40;99959.00;;;;4993140;27;109248;-61
2023/07/30 05:28:24;;;;;;;2.05;1.10;;;17.30;99.90;17.50;99966.00;;;;4995044;27;116338;-60
2023/07/30 05:30:50;;;;;;;1.50;1.40;;;17.40;99.90;17.60;99962.00;;;;4993622;27;117825;-60
2023/07/30 05:33:15;;;;;;;1.23;1.13;;;17.40;99.90;17.60;99974.00;;;;4992586;27;107014;-61
2023/07/30 05:35:41;;;;;;;1.20;1.10;;;17.50;99.90;17.70;99973.00;;;;4991317;27;107442;-61
2023/07/30 05:38:07;;;;;;;0.82;0.65;;;17.60;99.90;17.70;99981.00;;;;4989533;27;116902;-62
2023/07/30 05:40:33;;;;;;;3.20;1.60;;;17.60;99.90;17.80;99986.00;;;;4994582;27;118522;-62
2023/07/30 05:43:00;;;;;;;1.73;1.05;;;17.70;99.90;17.90;99983.00;;;;4993028;27;95609;-62
2023/07/30 05:45:26;;;;;;;2.53;1.48;;;17.80;99.90;18.00;99968.00;;;;4991883;27;88193;-62
2023/07/30 05:47:52;;;;;;;2.03;1.45;;;17.90;99.90;18.10;99980.00;;;;4993590;27;98494;-63
2023/07/30 05:50:17;;;;;;;1.13;0.93;;;17.90;99.90;18.20;99984.00;;;;4986754;27;118282;-63
2023/07/30 05:52:43;;;;;;;1.75;1.33;;;18.10;99.90;18.30;99973.00;;;;4985651;27;88160;-64
2023/07/30 05:55:09;;;;;;;1.50;1.13;;;18.10;99.90;18.40;99978.00;;;;4987424;27;107195;-63
2023/07/30 05:57:34;;;;;;;2.20;1.60;;;18.30;99.90;18.50;99980.00;;;;4989000;27;87763;-64
2023/07/30 06:00:00;;;;;;;2.42;1.10;;;18.40;99.90;18.70;99984.00;;;;4987019;27;88208;-63
2023/07/30 06:02:26;;;;;;;2.63;1.15;;;18.50;99.90;18.80;99994.00;;;;4986162;27;110848;-63
2023/07/30 06:04:51;;;;;;;1.55;1.25;;;18.60;99.90;18.90;99987.00;;;;4985694;27;107671;-64
2023/07/30 06:07:17;;;;;;;1.45;1.35;;;18.80;99.90;19.00;99987.00;;;;4988656;27;88149;-64
2023/07/30 06:09:43;;;;;;;1.25;1.15;;;18.90;99.90;19.10;99977.00;;;;4982778;27;117775;-63
2023/07/30 06:12:08;;;;;;;1.05;0.98;;;19.00;99.90;19.30;99994.00;;;;4986827;27;87820;-63
2023/07/30 06:14:34;;;;;;;1.27;1.13;;;19.10;99.90;19.50;99992.00;;;;4986287;27;107617;-63
2023/07/30 06:17:00;;;;;;;1.00;0.90;;;19.30;99.90;19.70;99992.00;;;;4989317;27;116487;-63
2023/07/30 06:19:26;;;;;;;1.25;1.15;;;19.50;99.90;19.90;99993.00;;;;4989436;27;115354;-63
2023/07/30 06:21:52;;;;;;;1.27;1.00;;;19.70;99.90;20.00;99999.00;;;;4992622;27;87056;-62
2023/07/30 06:24:17;;;;;;;1.58;1.35;;;19.80;99.90;20.10;99996.00;;;;4988556;27;108982;-63
2023/07/30 06:26:43;;;;;;;9.07;1.35;;;19.90;99.90;20.20;100008.00;;;;4983189;27;117240;-63
2023/07/30 06:29:09;;;;;;;1.70;1.30;;;20.00;99.90;20.30;100008.00;;;;4988926;28;116255;-62
2023/07/30 06:31:34;;;;;;;0.80;0.80;;;20.20;99.90;20.40;100003.00;;;;4990767;27;109431;-63
2023/07/30 06:34:00;;;;;;;5.20;1.17;;;20.30;99.90;20.50;100015.00;;;;4987409;27;107146;-62
2023/07/30 06:36:25;;;;;;;0.85;0.70;;;20.40;99.90;20.70;100016.00;;;;4986572;27;118743;-62
2023/07/30 06:38:51;;;;;;;0.68;0.68;;;20.50;99.90;20.80;100014.00;;;;4982958;27;117457;-63
2023/07/30 06:41:17;;;;;;;0.73;0.73;;;20.60;99.90;20.90;100012.00;;;;4987104;27;104467;-64
2023/07/30 06:43:43;;;;;;;1.58;1.10;;;20.80;99.90;21.00;100020.00;;;;4984931;27;87894;-65
2023/07/30 06:46:08;;;;;;;1.13;0.73;;;20.90;99.90;21.20;100018.00;;;;4986699;27;116274;-64
2023/07/30 06:48:34;;;;;;;0.82;0.80;;;21.10;99.90;21.40;100018.00;;;;4984310;27;116162;-64
2023/07/30 06:50:59;;;;;;;1.75;1.05;;;21.20;99.90;21.50;100025.00;;;;4986721;27;109306;-64
2023/07/30 06:53:25;;;;;;;1.98;0.98;;;21.30;99.90;21.60;100030.00;;;;4986958;27;93525;-63
2023/07/30 06:55:51;;;;;;;2.92;1.30;;;21.40;99.90;21.70;100033.00;;;;4982625;27;117178;-63
2023/07/30 06:58:16;;;;;;;0.50;0.50;;;21.60;99.90;21.80;100028.00;;;;4987140;27;116880;-64
2023/07/30 07:00:42;;;;;;;1.27;0.98;;;21.70;99.90;22.00;100024.00;;;;4982774;27;110237;-64
2023/07/30 07:03:08;;;;;;;2.08;1.23;;;21.80;99.90;22.20;100024.00;;;;4982464;27;109233;-64
2023/07/30 07:05:34;;;;;;;1.00;0.93;;;22.00;99.90;22.40;100025.00;;;;4984743;27;87880;-64
2023/07/30 07:08:00;;;;;;;1.58;0.80;;;22.20;99.90;22.50;100026.00;;;;4986493;27;116061;-65
2023/07/30 07:10:25;;;;;;;1.00;0.80;;;22.40;99.90;22.60;100027.00;;;;4986496;27;87050;-64
2023/07/30 07:12:51;;;;;;;1.50;0.93;;;22.50;99.90;22.60;100030.00;;;;4993275;27;108284;-64
2023/07/30 07:15:23;;;;;;;0.80;0.80;;;22.50;99.90;22.60;100019.00;;;;4987448;27;87859;-63
2023/07/30 07:17:48;;;;;;;2.05;1.02;;;22.50;99.90;22.70;100033.00;;;;4984695;27;117634;-64
2023/07/30 07:20:14;;;;;;;1.85;1.33;;;22.60;99.90;22.80;100034.00;;;;4983972;27;92634;-63
2023/07/30 07:22:40;;;;;;;1.20;0.68;;;22.60;99.90;23.00;100042.00;;;;4986661;27;108694;-63
2023/07/30 07:25:06;;;;;;;1.10;1.00;;;23.80;99.90;23.10;100037.00;;;;4984940;27;90209;-63
2023/07/30 07:27:34;;;;;;;1.20;0.60;;;22.90;99.90;23.20;100035.00;;;;4986138;27;107056;-63
2023/07/30 07:30:00;;;;;;;1.73;1.17;;;23.00;99.90;23.20;100037.00;;;;4986020;27;109639;-63
2023/07/30 07:32:25;;;;;;;2.42;1.48;;;23.00;99.90;23.20;100041.00;;;;4985470;27;109139;-64
2023/07/30 07:34:51;;;;;;;1.50;1.35;;;23.00;99.90;23.20;100034.00;;;;4982473;27;88553;-64
2023/07/30 07:37:18;;;;;;;1.08;0.98;;;23.00;99.90;23.20;100044.00;;;;4980954;27;116236;-65
2023/07/30 07:39:45;;;;;;;0.77;0.65;;;23.00;99.90;23.20;100044.00;;;;4981559;27;87937;-64
2023/07/30 07:42:11;;;;;;;1.10;0.95;;;23.00;99.90;23.30;100032.00;;;;4982620;27;89280;-63
2023/07/30 07:44:37;;;;;;;4.63;0.90;;;23.10;99.90;23.40;100043.00;;;;4985030;27;105807;-64
2023/07/30 07:47:03;;;;;;;4.78;0.88;;;23.20;99.90;23.50;100052.00;;;;4983856;27;88221;-64
2023/07/30 07:49:29;;;;;;;2.05;0.93;;;23.30;99.90;23.70;100038.00;;;;4986048;27;87974;-64
2023/07/30 07:51:54;;;;;;;0.93;0.63;;;23.50;99.90;23.90;100038.00;;;;4986976;27;108951;-65
2023/07/30 07:54:20;;;;;;;0.98;0.98;;;23.70;99.90;24.00;100037.00;;;;4983822;27;117791;-65
2023/07/30 07:56:46;;;;;;;1.13;0.60;;;23.80;99.90;24.20;100045.00;;;;4984113;27;88614;-65
2023/07/30 07:59:12;;;;;;;1.15;0.90;;;24.10;99.90;24.50;100041.00;;;;4978174;27;110299;-65
2023/07/30 08:01:37;;;;;;;1.10;0.50;;;24.30;99.90;24.70;100038.00;;;;4985696;27;88995;-65
2023/07/30 08:04:03;;;;;;;1.23;0.82;;;24.50;99.90;24.80;100042.00;;;;4985910;27;115838;-64
2023/07/30 08:06:29;;;;;;;0.70;0.68;;;24.60;99.90;24.90;100033.00;;;;4979399;27;108431;-63
2023/07/30 08:08:55;;;;;;;0.93;0.77;;;24.80;99.90;25.10;100021.00;;;;4989786;27;87829;-66
2023/07/30 08:11:20;;;;;;;2.17;0.60;;;25.00;99.90;25.40;100021.00;;;;4987194;27;91010;-64
2023/07/30 08:13:46;;;;;;;1.13;0.88;;;25.20;99.90;25.70;100025.00;;;;4986356;27;116171;-64
2023/07/30 08:16:12;;;;;;;1.00;0.73;;;25.40;99.90;25.90;100025.00;;;;4986493;27;117815;-65
2023/07/30 08:18:38;;;;;;;0.60;0.40;;;25.60;99.90;26.00;100027.00;;;;4986267;27;110092;-64
2023/07/30 08:21:03;;;;;;;0.52;0.52;;;25.80;99.90;25.90;100021.00;;;;4986271;27;108643;-64
2023/07/30 08:23:32;;;;;;;1.08;0.80;;;25.80;99.90;25.80;100024.00;;;;4990839;27;87900;-64
2023/07/30 08:25:58;;;;;;;1.17;0.57;;;25.70;99.90;25.70;100018.00;;;;4979002;27;115438;-64
2023/07/30 08:28:23;;;;;;;0.73;0.60;;;25.60;99.90;25.80;100023.00;;;;4976902;27;109931;-65
2023/07/30 08:30:49;;;;;;;1.40;0.80;;;25.60;99.90;25.80;100019.00;;;;4992054;27;107931;-63
2023/07/30 08:33:15;;;;;;;0.68;0.68;;;25.70;99.90;25.80;100010.00;;;;4950714;27;117680;-64
2023/07/30 08:35:40;;;;;;;3.47;0.77;;;25.70;99.60;25.70;100022.00;;;;4934179;27;102045;-62
2023/07/30 08:38:06;;;;;;;1.98;1.08;;;25.60;99.30;25.80;100018.00;;;;4992655;27;111191;-63
2023/07/30 08:40:32;;;;;;;1.05;0.63;;;25.60;98.70;25.80;100013.00;;;;4987774;27;108907;-63
2023/07/30 08:42:58;;;;;;;1.25;0.82;;;25.60;98.90;25.90;100015.00;;;;4993925;27;88340;-63
2023/07/30 08:45:24;;;;;;;1.88;1.05;;;25.70;99.00;26.10;100020.00;;;;4990740;27;117695;-63
2023/07/30 08:47:50;;;;;;;0.80;0.80;;;25.80;99.00;26.20;100024.00;;;;4993569;27;110954;-63
2023/07/30 08:50:16;;;;;;;0.90;0.68;;;26.00;98.10;26.40;100020.00;;;;4973175;27;107216;-65
2023/07/30 08:52:42;;;;;;;1.55;1.00;;;26.10;97.50;26.50;100009.00;;;;4995824;27;117230;-64
2023/07/30 08:55:08;;;;;;;2.92;0.65;;;26.30;96.70;26.70;100022.00;;;;4995235;27;116477;-65
2023/07/30 08:57:34;;;;;;;0.45;0.45;;;26.40;96.50;26.90;100017.00;;;;4993488;27;99913;-65
2023/07/30 09:00:11;;;;;;;1.85;1.17;;;26.60;95.90;27.10;100012.00;;;;4976714;27;108517;-63
2023/07/30 09:02:44;;;;;;;0.40;0.40;;;26.80;95.80;27.30;100014.00;;;;4992718;27;87911;-63
2023/07/30 09:05:11;;;;;;;0.93;0.85;;;27.00;95.20;27.40;100006.00;;;;4986673;27;109463;-64
2023/07/30 09:07:36;;;;;;;2.25;0.77;;;27.10;94.10;27.40;100023.00;;;;4994235;27;110506;-63
2023/07/30 09:10:02;;;;;;;1.67;0.57;;;27.20;93.60;27.60;100020.00;;;;4991973;27;87877;-63
2023/07/30 09:12:35;;;;;;;0.82;0.80;;;27.30;93.10;27.60;100022.00;;;;4991053;27;109597;-63
2023/07/30 09:15:06;;;;;;;0.40;0.40;;;27.40;92.30;27.60;100030.00;;;;4985329;27;87865;-63
2023/07/30 09:17:33;;;;;;;0.65;0.63;;;27.40;91.10;27.50;100024.00;;;;4990582;28;102966;-64
2023/07/30 09:20:03;;;;;;;15.73;1.00;;;27.30;90.90;27.50;100026.00;;;;4989031;27;88881;-64
2023/07/30 09:22:39;;;;;;;1.70;0.63;;;27.30;90.90;27.50;100028.00;;;;4984982;27;88799;-64
2023/07/30 09:25:06;;;;;;;0.75;0.60;;;27.30;90.70;27.50;100035.00;;;;4986708;27;88022;-63
2023/07/30 09:27:33;;;;;;;1.23;0.50;;;27.30;90.70;27.50;100020.00;;;;4990587;27;88061;-63
2023/07/30 09:30:01;;;;;;;0.45;0.45;;;27.30;90.10;27.40;100028.00;;;;4992925;27;87790;-63
2023/07/30 09:32:29;;;;;;;2.25;0.98;;;27.20;90.40;27.40;100023.00;;;;4986165;27;88898;-64
2023/07/30 09:34:55;;;;;;;0.73;0.70;;;27.20;88.90;27.30;100021.00;;;;4986671;27;88189;-64
2023/07/30 09:37:21;;;;;;;0.80;0.52;;;27.10;87.70;27.30;100032.00;;;;4989334;27;87167;-64
2023/07/30 09:39:49;;;;;;;0.32;0.32;;;27.10;88.30;27.40;100023.00;;;;4987819;27;107662;-63
2023/07/30 09:42:15;;;;;;;0.38;0.25;;;27.20;87.40;27.50;100023.00;;;;4989007;28;102181;-63
2023/07/30 09:44:41;;;;;;;0.65;0.65;;;27.20;86.40;27.40;100021.00;;;;4989133;27;118068;-64
2023/07/30 09:47:10;;;;;;;0.90;0.82;;;27.20;86.00;27.30;100018.00;;;;4988897;27;110097;-65
2023/07/30 09:49:38;;;;;;;0.93;0.80;;;27.10;84.70;27.10;100019.00;;;;4988580;27;88059;-63
2023/07/30 09:52:05;;;;;;;0.80;0.75;;;27.00;84.00;26.90;100024.00;;;;4993534;27;115850;-65
2023/07/30 09:54:33;;;;;;;0.88;0.60;;;26.80;85.30;26.80;100015.00;;;;4983965;27;89582;-65
2023/07/30 09:56:59;;;;;;;0.90;0.80;;;26.60;84.90;26.80;100027.00;;;;4988489;27;87894;-65
2023/07/30 09:59:25;;;;;;;1.05;0.85;;;26.50;85.00;26.80;100028.00;;;;4987949;27;87948;-65
2023/07/30 10:01:55;;;;;;;1.55;0.70;;;26.50;84.90;26.90;100018.00;;;;4986774;27;115922;-64
2023/07/30 10:04:22;;;;;;;0.50;0.50;;;26.50;85.90;27.10;100022.00;;;;4989069;27;87850;-66
2023/07/30 10:07:08;;;;;;;0.85;0.82;;;26.70;85.80;27.20;100027.00;;;;4988371;27;88613;-66
2023/07/30 10:09:43;;;;;;;0.65;0.65;;;26.80;82.70;27.30;100016.00;;;;4989655;27;98642;-66
2023/07/30 10:12:12;;;;;;;0.77;0.77;;;27.00;83.10;27.50;100025.00;;;;4988377;27;88055;-66
2023/07/30 10:14:38;;;;;;;7.93;0.77;;;27.10;81.80;27.40;100018.00;;;;4991781;28;108346;-66
2023/07/30 10:17:04;;;;;;;0.85;0.85;;;27.10;80.30;27.30;100019.00;;;;4990125;27;87537;-66
2023/07/30 10:19:31;;;;;;;2.28;0.82;;;27.00;79.70;27.30;100026.00;;;;4987422;27;89694;-66
2023/07/30 10:22:24;;;;;;;1.38;0.82;;;27.00;79.30;27.30;100023.00;;;;4990806;27;89365;-67
2023/07/30 10:25:02;;;;;;;0.45;0.40;;;27.00;79.60;27.30;100029.00;;;;4986355;27;88621;-66
2023/07/30 10:27:40;;;;;;;0.60;0.50;;;27.00;79.70;27.40;100032.00;;;;4984711;27;87341;-65
2023/07/30 10:30:32;;;;;;;0.52;0.52;;;27.10;79.50;27.40;100028.00;;;;4994039;27;87606;-66
2023/07/30 10:33:09;;;;;;;0.88;0.60;;;27.00;79.10;27.50;100042.00;;;;4991445;27;92879;-66
2023/07/30 10:35:35;;;;;;;0.85;0.68;;;27.20;80.00;27.60;100029.00;;;;4986385;27;118308;-66
2023/07/30 10:38:20;;;;;;;2.47;0.90;;;27.30;79.00;27.60;100026.00;;;;4974620;27;111534;-64
2023/07/30 10:41:01;;;;;;;1.20;0.73;;;27.30;77.00;27.50;100043.00;;;;4991463;27;87713;-66
2023/07/30 10:43:50;;;;;;;1.15;0.80;;;27.20;75.30;27.30;100034.00;;;;4986158;27;88398;-66
2023/07/30 10:46:18;;;;;;;0.80;0.70;;;27.10;75.60;27.20;100046.00;;;;4984687;27;88033;-66